createdAt,value
2022-12-23T00:00:57.930Z,98329.13
2022-12-23T00:03:24.968Z,98324.53
2022-12-23T00:05:52.103Z,98318.94
2022-12-23T00:08:18.978Z,98310.72
2022-12-23T00:10:46.070Z,98318.19
2022-12-23T00:13:31.450Z,98312.53
2022-12-23T00:16:09.792Z,98315.78
2022-12-23T00:18:36.755Z,98272.00
2022-12-23T00:21:09.315Z,98304.94
2022-12-23T00:23:37.729Z,98299.56
2022-12-23T00:26:04.726Z,98311.41
2022-12-23T00:28:31.592Z,98307.91
2022-12-23T00:31:05.478Z,98299.03
2022-12-23T00:33:36.469Z,98305.03
2022-12-23T00:36:10.652Z,98308.03
2022-12-23T00:38:56.044Z,98295.41
2022-12-23T00:41:41.803Z,98306.25
2022-12-23T00:44:08.637Z,98306.56
2022-12-23T00:46:35.470Z,98313.59
2022-12-23T00:49:21.172Z,98298.84
2022-12-23T00:51:48.109Z,98303.22
2022-12-23T00:54:15.069Z,98297.03
2022-12-23T00:56:41.977Z,98285.47
2022-12-23T00:59:08.824Z,98290.84
2022-12-23T01:01:54.598Z,98259.03
2022-12-23T01:04:40.536Z,98289.53
2022-12-23T01:07:07.539Z,98264.47
2022-12-23T01:09:34.544Z,98292.50
2022-12-23T01:12:01.440Z,98293.59
2022-12-23T01:14:28.592Z,98306.28
2022-12-23T01:16:55.487Z,98306.28
2022-12-23T01:19:22.364Z,98283.00
2022-12-23T01:21:49.243Z,98313.03
2022-12-23T01:24:16.108Z,98317.31
2022-12-23T01:26:42.949Z,98304.69
2022-12-23T01:29:09.838Z,98311.66
2022-12-23T01:31:36.743Z,98307.06
2022-12-23T01:34:03.641Z,98295.28
2022-12-23T01:36:30.576Z,98309.75
2022-12-23T01:38:57.436Z,98303.38
2022-12-23T01:41:44.948Z,98305.03
2022-12-23T01:44:47.524Z,98317.41
2022-12-23T01:47:17.295Z,98327.66
2022-12-23T01:49:44.176Z,98287.34
2022-12-23T01:52:11.037Z,98332.84
2022-12-23T01:54:37.931Z,98333.09
2022-12-23T01:57:04.766Z,98328.53
2022-12-23T01:59:50.375Z,98338.00
2022-12-23T02:02:35.811Z,98329.94
2022-12-23T02:05:02.763Z,98339.06
2022-12-23T02:07:48.532Z,98346.63
2022-12-23T02:10:15.589Z,98345.03
2022-12-23T02:12:50.599Z,98276.66
2022-12-23T02:15:38.926Z,98352.59
2022-12-23T02:18:24.543Z,98348.31
2022-12-23T02:20:51.370Z,98356.16
2022-12-23T02:23:40.376Z,98363.13
2022-12-23T02:26:10.277Z,98352.94
2022-12-23T02:29:22.826Z,98340.88
2022-12-23T02:32:10.076Z,98330.19
2022-12-23T02:35:02.279Z,98330.75
2022-12-23T02:37:55.082Z,98323.00
2022-12-23T02:40:24.586Z,98323.88
2022-12-23T02:43:17.503Z,98305.69
2022-12-23T02:46:16.862Z,98319.09
2022-12-23T02:49:01.542Z,98318.56
2022-12-23T02:51:33.691Z,98317.03
2022-12-23T02:54:02.574Z,98309.75
2022-12-23T02:56:30.655Z,98307.94
2022-12-23T02:59:01.288Z,98311.69
2022-12-23T03:01:28.299Z,98316.56
2022-12-23T03:03:55.176Z,98309.34
2022-12-23T03:06:24.407Z,98308.81
2022-12-23T03:08:52.754Z,98306.09
2022-12-23T03:11:19.649Z,98304.66
2022-12-23T03:13:58.643Z,98305.53
2022-12-23T03:16:50.038Z,98300.56
2022-12-23T03:19:40.317Z,98244.91
2022-12-23T03:22:14.863Z,98298.84
2022-12-23T03:24:45.237Z,98290.31
2022-12-23T03:27:43.161Z,98300.81
2022-12-23T03:30:15.036Z,98294.38
2022-12-23T03:33:02.915Z,98264.22
2022-12-23T03:35:40.965Z,98289.00
2022-12-23T03:38:08.099Z,98286.63
2022-12-23T03:40:43.215Z,98288.25
2022-12-23T03:43:17.539Z,98255.88
2022-12-23T03:45:47.817Z,98278.78
2022-12-23T03:48:36.048Z,98244.63
2022-12-23T03:51:05.708Z,98276.69
2022-12-23T03:53:35.154Z,98274.25
2022-12-23T03:56:11.821Z,98271.31
2022-12-23T03:58:56.359Z,98271.31
2022-12-23T04:01:46.001Z,98260.75
2022-12-23T04:04:18.123Z,98270.72
2022-12-23T04:06:53.315Z,98265.59
2022-12-23T04:09:22.298Z,98266.97
2022-12-23T04:11:49.303Z,98235.78
2022-12-23T04:14:19.829Z,98226.41
2022-12-23T04:16:47.076Z,98233.81
2022-12-23T04:19:13.940Z,98266.13
2022-12-23T04:21:40.826Z,98265.34
2022-12-23T04:24:07.939Z,98260.16
2022-12-23T04:26:34.784Z,98230.53
2022-12-23T04:29:01.689Z,98220.19
2022-12-23T04:31:28.596Z,98234.56
2022-12-23T04:33:55.537Z,98260.88
2022-12-23T04:36:22.451Z,98231.41
2022-12-23T04:38:49.302Z,98270.88
2022-12-23T04:41:16.120Z,98261.63
2022-12-23T04:43:45.440Z,98257.81
2022-12-23T04:46:16.287Z,98259.13
2022-12-23T04:48:43.176Z,98264.84
2022-12-23T04:51:10.018Z,98259.13
2022-12-23T04:53:37.305Z,98230.44
2022-12-23T04:56:04.388Z,98260.88
2022-12-23T04:58:31.338Z,98251.63
2022-12-23T05:01:09.249Z,98250.00
2022-12-23T05:03:36.846Z,98249.06
2022-12-23T05:06:04.267Z,98248.06
2022-12-23T05:08:31.245Z,98250.94
2022-12-23T05:10:58.095Z,98223.97
2022-12-23T05:13:25.058Z,98250.56
2022-12-23T05:15:52.697Z,98249.78
2022-12-23T05:18:19.871Z,98213.38
2022-12-23T05:20:46.772Z,98241.25
2022-12-23T05:23:13.697Z,98245.84
2022-12-23T05:25:40.559Z,98234.47
2022-12-23T05:28:10.392Z,98229.47
2022-12-23T05:30:37.294Z,98231.00
2022-12-23T05:33:04.201Z,98230.47
2022-12-23T05:35:31.187Z,98231.22
2022-12-23T05:37:58.475Z,98227.19
2022-12-23T05:40:26.697Z,98222.69
2022-12-23T05:42:56.175Z,98226.16
2022-12-23T05:45:23.208Z,98220.97
2022-12-23T05:47:50.054Z,98215.34
2022-12-23T05:50:16.971Z,98211.97
2022-12-23T05:52:43.895Z,98207.13
2022-12-23T05:55:10.830Z,98176.38
2022-12-23T05:57:37.673Z,98194.63
2022-12-23T06:00:04.874Z,98172.91
2022-12-23T06:02:39.366Z,98204.88
2022-12-23T06:05:06.771Z,98202.28
2022-12-23T06:07:33.589Z,98216.94
2022-12-23T06:10:00.412Z,98211.72
2022-12-23T06:12:27.316Z,98220.81
2022-12-23T06:14:54.183Z,98233.09
2022-12-23T06:17:21.039Z,98238.31
2022-12-23T06:19:47.937Z,98239.25
2022-12-23T06:22:15.039Z,98240.63
2022-12-23T06:24:41.917Z,98241.53
2022-12-23T06:27:08.828Z,98242.22
2022-12-23T06:29:35.662Z,98244.38
2022-12-23T06:32:02.620Z,98251.22
2022-12-23T06:34:29.588Z,98251.78
2022-12-23T06:36:56.407Z,98246.13
2022-12-23T06:39:23.426Z,98256.31
2022-12-23T06:41:50.311Z,98253.72
2022-12-23T06:44:17.190Z,98253.41
2022-12-23T06:46:44.120Z,98254.78
2022-12-23T06:49:13.441Z,98262.75
2022-12-23T06:51:40.849Z,98229.19
2022-12-23T06:54:09.567Z,98259.13
2022-12-23T06:56:36.481Z,98237.53
2022-12-23T06:59:03.334Z,98262.28
2022-12-23T07:01:30.235Z,98265.13
2022-12-23T07:03:57.541Z,98268.41
2022-12-23T07:06:24.443Z,98266.16
2022-12-23T07:08:51.308Z,98264.09
2022-12-23T07:11:18.675Z,98268.78
2022-12-23T07:13:45.907Z,98265.34
2022-12-23T07:16:12.812Z,98269.44
2022-12-23T07:18:39.805Z,98273.06
2022-12-23T07:21:13.400Z,98272.03
2022-12-23T07:23:45.035Z,98277.59
2022-12-23T07:26:11.969Z,98271.13
2022-12-23T07:28:39.774Z,98273.41
2022-12-23T07:31:07.105Z,98276.09
2022-12-23T07:33:34.021Z,98279.16
2022-12-23T07:36:00.913Z,98268.00
2022-12-23T07:38:27.825Z,98260.25
2022-12-23T07:40:54.675Z,98260.94
2022-12-23T07:43:21.537Z,98257.88
2022-12-23T07:45:51.357Z,98258.78
2022-12-23T07:48:22.730Z,98269.13
2022-12-23T07:50:49.638Z,98259.00
2022-12-23T07:53:16.472Z,98259.88
2022-12-23T07:55:43.356Z,98264.63
2022-12-23T07:58:10.266Z,98265.19
2022-12-23T08:00:37.157Z,98263.34
2022-12-23T08:03:04.055Z,98257.19
2022-12-23T08:05:31.450Z,98256.59
2022-12-23T08:07:58.425Z,98244.63
2022-12-23T08:10:25.260Z,98243.13
2022-12-23T08:12:52.174Z,98237.44
2022-12-23T08:15:19.045Z,98237.19
2022-12-23T08:17:45.912Z,98225.19
2022-12-23T08:20:12.856Z,98225.28
2022-12-23T08:22:39.756Z,98221.41
2022-12-23T08:25:07.031Z,98203.88
2022-12-23T08:27:34.667Z,98220.53
2022-12-23T08:30:01.501Z,98234.28
2022-12-23T08:32:28.476Z,98237.19
2022-12-23T08:34:57.529Z,98233.06
2022-12-23T08:37:24.875Z,98198.41
2022-12-23T08:39:51.772Z,98225.13
2022-12-23T08:42:19.808Z,98224.97
2022-12-23T08:44:46.706Z,98224.41
2022-12-23T08:47:13.601Z,98223.44
2022-12-23T08:49:40.656Z,98219.25
2022-12-23T08:52:07.589Z,98213.97
2022-12-23T08:54:34.438Z,98211.75
2022-12-23T08:57:01.311Z,98204.69
2022-12-23T08:59:28.127Z,98197.19
2022-12-23T09:01:55.134Z,98193.81
2022-12-23T09:04:22.100Z,98200.88
2022-12-23T09:06:48.939Z,98196.28
2022-12-23T09:09:16.244Z,98203.75
2022-12-23T09:11:43.202Z,98196.44
2022-12-23T09:14:10.562Z,98212.94
2022-12-23T09:16:37.896Z,98210.25
2022-12-23T09:19:05.024Z,98206.81
2022-12-23T09:21:31.908Z,98205.75
2022-12-23T09:23:58.930Z,98201.94
2022-12-23T09:26:27.407Z,98205.53
2022-12-23T09:28:55.256Z,98195.09
2022-12-23T09:31:22.774Z,98186.97
2022-12-23T09:33:50.685Z,98196.81
2022-12-23T09:36:17.603Z,98198.50
2022-12-23T09:38:44.493Z,98191.56
2022-12-23T09:41:17.285Z,98188.16
2022-12-23T09:44:03.034Z,98127.72
2022-12-23T09:46:30.145Z,98177.34
2022-12-23T09:49:00.029Z,98186.88
2022-12-23T09:51:26.935Z,98179.44
2022-12-23T09:54:22.756Z,98184.59
2022-12-23T09:57:02.718Z,98181.13
2022-12-23T09:59:54.317Z,98191.28
2022-12-23T10:02:30.411Z,98157.31
2022-12-23T10:05:04.836Z,98133.69
2022-12-23T10:07:36.185Z,98181.25
2022-12-23T10:10:18.419Z,98173.09
2022-12-23T10:12:47.262Z,98172.88
2022-12-23T10:15:29.183Z,98134.22
2022-12-23T10:17:58.044Z,98149.03
2022-12-23T10:20:32.619Z,98106.03
2022-12-23T10:22:59.277Z,98157.88
2022-12-23T10:25:39.395Z,98123.84
2022-12-23T10:28:06.270Z,98152.44
2022-12-23T10:30:57.479Z,98149.69
2022-12-23T10:33:29.112Z,98141.81
2022-12-23T10:35:55.926Z,98139.81
2022-12-23T10:38:28.688Z,98141.81
2022-12-23T10:41:19.634Z,98140.44
2022-12-23T10:43:58.565Z,98138.09
2022-12-23T10:46:40.817Z,98139.34
2022-12-23T10:49:30.436Z,98138.63
2022-12-23T10:52:05.346Z,98150.75
2022-12-23T10:54:33.547Z,98153.84
2022-12-23T10:57:00.622Z,98151.50
2022-12-23T10:59:29.532Z,98134.81
2022-12-23T11:02:13.672Z,98168.03
2022-12-23T11:04:45.936Z,98171.25
2022-12-23T11:10:18.968Z,98173.25
2022-12-23T11:12:48.453Z,98156.53
2022-12-23T11:15:28.928Z,98186.56
2022-12-23T11:18:00.705Z,98184.22
2022-12-23T11:20:27.559Z,98181.69
2022-12-23T11:22:56.121Z,98170.00
2022-12-23T11:25:42.760Z,98183.94
2022-12-23T11:28:16.762Z,98155.75
2022-12-23T11:30:57.239Z,98180.22
2022-12-23T11:33:29.042Z,98189.19
2022-12-23T11:36:08.410Z,98136.63
2022-12-23T11:38:36.303Z,98140.34
2022-12-23T11:41:04.077Z,98172.09
2022-12-23T11:43:30.921Z,98130.34
2022-12-23T11:46:15.747Z,98141.31
2022-12-23T11:48:42.520Z,98182.69
2022-12-23T11:51:09.359Z,98188.91
2022-12-23T11:53:36.791Z,98176.00
2022-12-23T11:56:10.283Z,98185.09
2022-12-23T11:58:48.964Z,98187.09
2022-12-23T12:01:21.633Z,98156.41
2022-12-23T12:03:55.864Z,98181.81
2022-12-23T12:06:22.807Z,98176.63
2022-12-23T12:08:51.345Z,98174.22
2022-12-23T12:11:19.684Z,98176.09
2022-12-23T12:13:48.790Z,98177.41
2022-12-23T12:16:27.431Z,98183.69
2022-12-23T12:18:56.089Z,98182.59
2022-12-23T12:21:24.994Z,98190.88
2022-12-23T12:24:17.064Z,98192.44
2022-12-23T12:26:45.092Z,98198.28
2022-12-23T12:29:41.833Z,98193.94
2022-12-23T12:32:38.819Z,98207.22
2022-12-23T12:35:07.306Z,98207.59
2022-12-23T12:37:59.557Z,98212.78
2022-12-23T12:40:36.494Z,98212.03
2022-12-23T12:43:21.271Z,98212.03
2022-12-23T12:45:50.860Z,98204.47
2022-12-23T12:48:36.526Z,98195.81
2022-12-23T12:51:17.277Z,98197.41
2022-12-23T12:54:30.476Z,98192.41
2022-12-23T12:56:58.103Z,98199.91
2022-12-23T12:59:37.649Z,98167.50
2022-12-23T13:02:26.173Z,98193.63
2022-12-23T13:05:14.511Z,98196.38
2022-12-23T13:07:52.237Z,98197.94
2022-12-23T13:10:28.397Z,98199.56
2022-12-23T13:13:04.318Z,98209.06
2022-12-23T13:15:38.508Z,98220.47
2022-12-23T13:18:11.118Z,98214.97
2022-12-23T13:20:46.394Z,98220.03
2022-12-23T13:23:45.220Z,98163.06
2022-12-23T13:26:34.328Z,98222.00
2022-12-23T13:29:33.696Z,98217.34
2022-12-23T13:32:20.674Z,98227.22
2022-12-23T13:35:04.018Z,98168.81
2022-12-23T13:37:33.534Z,98229.63
2022-12-23T13:40:18.893Z,98222.97
2022-12-23T13:42:52.597Z,98227.63
2022-12-23T13:45:19.741Z,98233.06
2022-12-23T13:48:05.660Z,98234.97
2022-12-23T13:50:57.211Z,98241.97
2022-12-23T13:53:48.250Z,98230.41
2022-12-23T13:56:18.182Z,98241.50
2022-12-23T13:58:47.411Z,98182.00
2022-12-23T14:01:14.192Z,98236.50
2022-12-23T14:03:41.144Z,98239.44
2022-12-23T14:06:40.526Z,98235.69
2022-12-23T14:09:07.485Z,98229.56
2022-12-23T14:11:34.322Z,98238.72
2022-12-23T14:14:05.390Z,98203.00
2022-12-23T14:16:50.522Z,98233.63
2022-12-23T14:19:51.664Z,98235.88
2022-12-23T14:22:24.791Z,98230.56
2022-12-23T14:25:16.253Z,98234.78
2022-12-23T14:27:55.737Z,98238.38
2022-12-23T14:30:24.416Z,98242.06
2022-12-23T14:32:52.342Z,98244.56
2022-12-23T14:35:35.441Z,98246.34
2022-12-23T14:38:15.861Z,98240.28
2022-12-23T14:40:42.753Z,98235.81
2022-12-23T14:43:23.405Z,98241.47
2022-12-23T14:45:54.117Z,98245.56
2022-12-23T14:48:36.958Z,98243.00
2022-12-23T14:51:10.080Z,98236.94
2022-12-23T14:53:38.169Z,98235.09
2022-12-23T14:56:08.104Z,98237.66
2022-12-23T14:58:47.213Z,98231.22
2022-12-23T15:01:20.111Z,98227.50
2022-12-23T15:03:49.177Z,98231.94
2022-12-23T15:06:28.412Z,98207.84
2022-12-23T15:08:55.414Z,98209.94
2022-12-23T15:11:26.503Z,98213.81
2022-12-23T15:13:53.440Z,98246.69
2022-12-23T15:16:24.247Z,98245.72
2022-12-23T15:18:58.981Z,98251.25
2022-12-23T15:21:29.178Z,98253.59
2022-12-23T15:23:56.103Z,98255.75
2022-12-23T15:26:26.020Z,98247.81
2022-12-23T15:28:52.929Z,98253.41
2022-12-23T15:31:39.372Z,98223.69
2022-12-23T15:34:17.133Z,98209.34
2022-12-23T15:36:44.559Z,98270.97
2022-12-23T15:39:18.729Z,98266.53
2022-12-23T15:41:46.082Z,98258.47
2022-12-23T15:44:15.529Z,98254.41
2022-12-23T15:46:42.461Z,98258.88
2022-12-23T15:49:11.114Z,98249.44
2022-12-23T15:54:31.343Z,98243.66
2022-12-23T15:56:59.148Z,98242.41
2022-12-23T15:59:36.863Z,98239.47
2022-12-23T16:02:59.095Z,98235.59
2022-12-23T16:05:12.411Z,98241.84
2022-12-23T16:07:40.801Z,98203.56
2022-12-23T16:10:16.664Z,98215.47
2022-12-23T16:12:43.540Z,98225.38
2022-12-23T16:15:30.936Z,98198.44
2022-12-23T16:18:19.360Z,98230.88
2022-12-23T16:20:48.735Z,98198.81
2022-12-23T16:23:15.593Z,98195.88
2022-12-23T16:25:50.529Z,98229.34
2022-12-23T16:28:28.023Z,98227.66
2022-12-23T16:30:56.471Z,98224.00
2022-12-23T16:33:37.048Z,98223.09
2022-12-23T16:36:25.493Z,98227.94
2022-12-23T16:38:53.552Z,98224.16
2022-12-23T16:41:20.760Z,98224.81
2022-12-23T16:43:52.515Z,98226.28
2022-12-23T16:46:20.954Z,98195.91
2022-12-23T16:49:05.140Z,98217.75
2022-12-23T16:51:34.164Z,98215.09
2022-12-23T16:54:01.636Z,98214.81
2022-12-23T16:56:36.518Z,98219.19
2022-12-23T16:59:03.902Z,98208.03
2022-12-23T17:01:44.967Z,98190.75
2022-12-23T17:04:12.151Z,98210.81
2022-12-23T17:06:39.681Z,98209.44
2022-12-23T17:09:07.834Z,98215.75
2022-12-23T17:11:36.787Z,98210.16
2022-12-23T17:14:07.972Z,98217.69
2022-12-23T17:16:38.936Z,98208.81
2022-12-23T17:19:05.876Z,98219.41
2022-12-23T17:21:36.646Z,98217.88
2022-12-23T17:24:14.428Z,98224.75
2022-12-23T17:26:41.420Z,98232.28
2022-12-23T17:29:09.790Z,98223.81
2022-12-23T17:31:36.771Z,98224.03
2022-12-23T17:34:03.883Z,98225.63
2022-12-23T17:36:30.884Z,98232.50
2022-12-23T17:38:57.838Z,98230.00
2022-12-23T17:41:29.129Z,98230.13
2022-12-23T17:43:56.043Z,98228.06
2022-12-23T17:46:23.282Z,98216.75
2022-12-23T17:48:50.273Z,98191.13
2022-12-23T17:51:19.067Z,98214.84
2022-12-23T17:53:47.444Z,98201.63
2022-12-23T17:56:19.390Z,98189.38
2022-12-23T17:58:47.228Z,98216.97
2022-12-23T18:01:19.944Z,98235.00
2022-12-23T18:03:47.040Z,98238.97
2022-12-23T18:06:14.944Z,98235.16
2022-12-23T18:08:41.806Z,98245.69
2022-12-23T18:11:09.079Z,98253.69
2022-12-23T18:13:36.328Z,98231.03
2022-12-23T18:16:03.309Z,98242.22
2022-12-23T18:18:39.269Z,98179.88
2022-12-23T18:21:13.100Z,98244.94
2022-12-23T18:23:40.004Z,98238.72
2022-12-23T18:26:06.885Z,98229.16
2022-12-23T18:28:33.790Z,98234.72
2022-12-23T18:31:00.679Z,98231.06
2022-12-23T18:33:29.423Z,98233.44
2022-12-23T18:35:56.427Z,98205.25
2022-12-23T18:38:23.311Z,98239.66
2022-12-23T18:40:53.897Z,98225.97
2022-12-23T18:43:24.317Z,98233.94
2022-12-23T18:45:53.636Z,98208.41
2022-12-23T18:48:21.573Z,98212.88
2022-12-23T18:50:48.620Z,98187.69
2022-12-23T18:53:23.381Z,98210.16
2022-12-23T18:55:51.118Z,98218.44
2022-12-23T18:58:18.116Z,98218.88
2022-12-23T19:00:45.018Z,98223.34
2022-12-23T19:03:25.782Z,98222.38
2022-12-23T19:05:53.235Z,98181.88
2022-12-23T19:08:26.107Z,98166.69
2022-12-23T19:10:54.425Z,98202.06
2022-12-23T19:13:21.333Z,98234.28
2022-12-23T19:15:48.258Z,98228.72
2022-12-23T19:18:16.431Z,98222.63
2022-12-23T19:20:44.102Z,98192.47
2022-12-23T19:23:11.014Z,98222.63
2022-12-23T19:25:40.986Z,98230.91
2022-12-23T19:28:08.186Z,98229.16
2022-12-23T19:30:35.110Z,98220.53
2022-12-23T19:33:02.032Z,98199.16
2022-12-23T19:35:28.892Z,98221.34
2022-12-23T19:37:55.845Z,98222.47
2022-12-23T19:40:22.704Z,98231.69
2022-12-23T19:42:49.541Z,98233.44
2022-12-23T19:45:17.174Z,98202.94
2022-12-23T19:47:44.121Z,98230.06
2022-12-23T19:50:11.253Z,98237.38
2022-12-23T19:52:38.083Z,98228.00
2022-12-23T19:55:05.477Z,98225.91
2022-12-23T19:57:33.374Z,98208.34
2022-12-23T20:00:01.847Z,98202.28
2022-12-23T20:02:38.986Z,98210.41
2022-12-23T20:05:06.170Z,98215.34
2022-12-23T20:07:35.299Z,98192.16
2022-12-23T20:10:02.594Z,98221.66
2022-12-23T20:12:29.419Z,98219.88
2022-12-23T20:14:56.270Z,98216.03
2022-12-23T20:17:23.169Z,98208.56
2022-12-23T20:19:49.995Z,98207.09
2022-12-23T20:22:16.880Z,98192.59
2022-12-23T20:24:43.820Z,98178.09
2022-12-23T20:27:12.100Z,98182.53
2022-12-23T20:29:40.084Z,98175.84
2022-12-23T20:32:06.956Z,98153.22
2022-12-23T20:34:39.157Z,98148.44
2022-12-23T20:37:06.716Z,98118.25
2022-12-23T20:39:33.581Z,98143.97
2022-12-23T20:42:00.456Z,98150.00
2022-12-23T20:44:36.645Z,98136.16
2022-12-23T20:47:05.574Z,98147.31
2022-12-23T20:49:32.665Z,98130.41
2022-12-23T20:51:59.664Z,98130.22
2022-12-23T20:54:32.039Z,98134.00
2022-12-23T20:56:59.961Z,98116.03
2022-12-23T20:59:26.851Z,98119.03
2022-12-23T21:01:55.317Z,98098.66
2022-12-23T21:04:22.798Z,98111.53
2022-12-23T21:06:49.742Z,98118.69
2022-12-23T21:09:17.037Z,98127.69
2022-12-23T21:11:45.254Z,98115.31
2022-12-23T21:14:12.139Z,98118.31
2022-12-23T21:16:39.165Z,98118.91
2022-12-23T21:19:07.298Z,98116.66
2022-12-23T21:21:34.205Z,98119.69
2022-12-23T21:24:02.159Z,98124.59
2022-12-23T21:26:29.855Z,98120.91
2022-12-23T21:29:00.878Z,98110.41
2022-12-23T21:31:28.947Z,98110.22
2022-12-23T21:33:55.871Z,98080.69
2022-12-23T21:36:24.329Z,98108.94
2022-12-23T21:38:51.443Z,98117.66
2022-12-23T21:41:23.002Z,98075.56
2022-12-23T21:43:50.095Z,98100.84
2022-12-23T21:46:18.626Z,98108.31
2022-12-23T21:48:45.688Z,98089.84
2022-12-23T21:51:13.385Z,98095.13
2022-12-23T21:53:40.699Z,98085.94
2022-12-23T21:56:12.109Z,98091.34
2022-12-23T21:58:39.222Z,98091.44
2022-12-23T22:01:10.035Z,98089.00
2022-12-23T22:03:37.046Z,98093.19
2022-12-23T22:06:10.962Z,98081.59
2022-12-23T22:08:39.003Z,98074.06
2022-12-23T22:11:16.553Z,98070.09
2022-12-23T22:13:43.703Z,98039.09
2022-12-23T22:16:16.136Z,98061.34
2022-12-23T22:18:43.122Z,98017.28
2022-12-23T22:21:11.941Z,98060.16
2022-12-23T22:23:38.878Z,98069.38
2022-12-23T22:26:06.096Z,98059.97
2022-12-23T22:28:33.604Z,98030.25
2022-12-23T22:31:24.421Z,98060.41
2022-12-23T22:33:51.385Z,98056.94
2022-12-23T22:36:18.271Z,98055.97
2022-12-23T22:38:50.456Z,98060.59
2022-12-23T22:41:17.401Z,98050.22
2022-12-23T22:43:44.217Z,98055.91
2022-12-23T22:46:11.162Z,98056.53
2022-12-23T22:48:38.302Z,98054.44
2022-12-23T22:51:14.623Z,98046.66
2022-12-23T22:53:41.572Z,98014.75
2022-12-23T22:56:08.658Z,98034.69
2022-12-23T22:58:35.479Z,98026.53
2022-12-23T23:01:02.400Z,98036.41
2022-12-23T23:03:29.710Z,98042.88
2022-12-23T23:06:00.911Z,98005.28
2022-12-23T23:08:28.584Z,98024.94
2022-12-23T23:10:57.056Z,98018.25
2022-12-23T23:13:25.292Z,98013.47
2022-12-23T23:15:52.350Z,98019.16
2022-12-23T23:18:19.165Z,98011.66
2022-12-23T23:20:45.991Z,97992.28
2022-12-23T23:23:12.959Z,97985.13
2022-12-23T23:25:39.872Z,97983.84
2022-12-23T23:28:06.732Z,97981.75
2022-12-23T23:30:33.820Z,97954.63
2022-12-23T23:33:00.663Z,97983.34
2022-12-23T23:35:27.527Z,97980.56
2022-12-23T23:37:54.423Z,97988.25
2022-12-23T23:40:21.285Z,97988.66
2022-12-23T23:42:48.169Z,98003.63
2022-12-23T23:45:15.101Z,98007.41
2022-12-23T23:47:41.954Z,97988.03
2022-12-23T23:50:09.430Z,97975.56
2022-12-23T23:52:36.337Z,97962.19
2022-12-23T23:55:03.211Z,97953.31
2022-12-23T23:57:30.139Z,97943.50
2022-12-23T23:59:57.014Z,97941.13
